sensor_id;sensor_type;location;lat;lon;timestamp;temperature;humidity
71879;DHT22;59755;43.834;4.364;2023-03-01T00:00:40;5.20;57.90
71879;DHT22;59755;43.834;4.364;2023-03-01T00:03:05;5.20;57.10
71879;DHT22;59755;43.834;4.364;2023-03-01T00:05:31;5.20;57.20
71879;DHT22;59755;43.834;4.364;2023-03-01T00:07:57;5.10;57.00
71879;DHT22;59755;43.834;4.364;2023-03-01T00:10:22;5.20;57.60
71879;DHT22;59755;43.834;4.364;2023-03-01T00:12:48;5.20;57.70
71879;DHT22;59755;43.834;4.364;2023-03-01T00:15:14;5.10;56.80
71879;DHT22;59755;43.834;4.364;2023-03-01T00:17:39;5.10;57.40
71879;DHT22;59755;43.834;4.364;2023-03-01T00:20:05;5.10;57.20
71879;DHT22;59755;43.834;4.364;2023-03-01T00:22:35;5.10;57.50
71879;DHT22;59755;43.834;4.364;2023-03-01T00:25:02;5.10;57.20
71879;DHT22;59755;43.834;4.364;2023-03-01T00:27:28;5.20;57.20
71879;DHT22;59755;43.834;4.364;2023-03-01T00:29:53;5.10;57.20
71879;DHT22;59755;43.834;4.364;2023-03-01T00:32:19;5.20;57.80
71879;DHT22;59755;43.834;4.364;2023-03-01T00:34:44;5.20;57.30
71879;DHT22;59755;43.834;4.364;2023-03-01T00:37:22;5.20;57.30
71879;DHT22;59755;43.834;4.364;2023-03-01T00:39:48;5.20;58.10
71879;DHT22;59755;43.834;4.364;2023-03-01T00:42:14;5.20;57.00
71879;DHT22;59755;43.834;4.364;2023-03-01T00:44:40;5.10;57.60
71879;DHT22;59755;43.834;4.364;2023-03-01T00:47:05;5.10;58.10
71879;DHT22;59755;43.834;4.364;2023-03-01T00:49:31;5.20;57.20
71879;DHT22;59755;43.834;4.364;2023-03-01T00:51:56;5.20;58.00
71879;DHT22;59755;43.834;4.364;2023-03-01T00:54:22;5.20;57.70
71879;DHT22;59755;43.834;4.364;2023-03-01T00:56:48;5.20;57.70
71879;DHT22;59755;43.834;4.364;2023-03-01T00:59:13;5.20;58.10
71879;DHT22;59755;43.834;4.364;2023-03-01T01:01:39;5.10;57.80
71879;DHT22;59755;43.834;4.364;2023-03-01T01:04:06;5.00;57.80
71879;DHT22;59755;43.834;4.364;2023-03-01T01:06:39;5.00;58.60
71879;DHT22;59755;43.834;4.364;2023-03-01T01:09:05;5.10;58.10
71879;DHT22;59755;43.834;4.364;2023-03-01T01:11:32;5.10;58.40
71879;DHT22;59755;43.834;4.364;2023-03-01T01:13:58;5.10;57.70
71879;DHT22;59755;43.834;4.364;2023-03-01T01:16:24;5.10;56.80
71879;DHT22;59755;43.834;4.364;2023-03-01T01:18:50;5.20;57.70
71879;DHT22;59755;43.834;4.364;2023-03-01T01:21:16;5.20;58.20
71879;DHT22;59755;43.834;4.364;2023-03-01T01:23:43;5.20;57.10
71879;DHT22;59755;43.834;4.364;2023-03-01T01:26:19;5.20;56.90
71879;DHT22;59755;43.834;4.364;2023-03-01T01:28:45;5.10;56.60
71879;DHT22;59755;43.834;4.364;2023-03-01T01:31:11;5.20;57.60
71879;DHT22;59755;43.834;4.364;2023-03-01T01:33:37;5.20;57.20
71879;DHT22;59755;43.834;4.364;2023-03-01T01:36:03;5.20;56.80
71879;DHT22;59755;43.834;4.364;2023-03-01T01:38:29;5.20;57.70
71879;DHT22;59755;43.834;4.364;2023-03-01T01:40:54;5.20;57.60
71879;DHT22;59755;43.834;4.364;2023-03-01T01:43:37;5.10;57.70
71879;DHT22;59755;43.834;4.364;2023-03-01T01:48:48;5.10;56.90
71879;DHT22;59755;43.834;4.364;2023-03-01T01:51:18;5.10;57.50
71879;DHT22;59755;43.834;4.364;2023-03-01T01:53:45;5.10;57.30
71879;DHT22;59755;43.834;4.364;2023-03-01T01:56:12;5.10;57.40
71879;DHT22;59755;43.834;4.364;2023-03-01T01:58:40;5.10;57.70
71879;DHT22;59755;43.834;4.364;2023-03-01T02:01:06;5.10;57.30
71879;DHT22;59755;43.834;4.364;2023-03-01T02:03:33;5.10;57.80
71879;DHT22;59755;43.834;4.364;2023-03-01T02:08:44;5.10;57.30
71879;DHT22;59755;43.834;4.364;2023-03-01T02:11:11;5.10;57.80
71879;DHT22;59755;43.834;4.364;2023-03-01T02:13:39;5.10;56.80
71879;DHT22;59755;43.834;4.364;2023-03-01T02:16:08;5.10;57.00
71879;DHT22;59755;43.834;4.364;2023-03-01T02:18:34;5.10;57.40
71879;DHT22;59755;43.834;4.364;2023-03-01T02:23:44;5.10;57.60
71879;DHT22;59755;43.834;4.364;2023-03-01T02:28:40;5.10;57.40
71879;DHT22;59755;43.834;4.364;2023-03-01T02:31:06;5.10;57.60
71879;DHT22;59755;43.834;4.364;2023-03-01T02:33:52;5.00;57.40
71879;DHT22;59755;43.834;4.364;2023-03-01T02:36:19;5.00;57.40
71879;DHT22;59755;43.834;4.364;2023-03-01T02:38:46;5.00;57.20
71879;DHT22;59755;43.834;4.364;2023-03-01T02:41:13;5.00;58.40
71879;DHT22;59755;43.834;4.364;2023-03-01T02:43:40;4.90;57.80
71879;DHT22;59755;43.834;4.364;2023-03-01T02:46:07;4.90;57.70
71879;DHT22;59755;43.834;4.364;2023-03-01T02:48:40;5.00;57.80
71879;DHT22;59755;43.834;4.364;2023-03-01T02:56:09;4.90;57.60
71879;DHT22;59755;43.834;4.364;2023-03-01T02:58:39;4.90;57.40
71879;DHT22;59755;43.834;4.364;2023-03-01T03:01:13;4.90;57.90
71879;DHT22;59755;43.834;4.364;2023-03-01T03:03:40;4.90;57.40
71879;DHT22;59755;43.834;4.364;2023-03-01T03:06:06;4.90;57.90
71879;DHT22;59755;43.834;4.364;2023-03-01T03:08:32;4.90;58.00
71879;DHT22;59755;43.834;4.364;2023-03-01T03:10:58;4.90;57.20
71879;DHT22;59755;43.834;4.364;2023-03-01T03:13:23;4.90;57.50
71879;DHT22;59755;43.834;4.364;2023-03-01T03:15:56;4.80;57.90
71879;DHT22;59755;43.834;4.364;2023-03-01T03:18:22;4.80;57.50
71879;DHT22;59755;43.834;4.364;2023-03-01T03:20:51;4.70;58.00
71879;DHT22;59755;43.834;4.364;2023-03-01T03:23:18;4.70;59.10
71879;DHT22;59755;43.834;4.364;2023-03-01T03:25:44;4.80;58.90
71879;DHT22;59755;43.834;4.364;2023-03-01T03:28:10;4.70;59.00
71879;DHT22;59755;43.834;4.364;2023-03-01T03:30:36;4.70;58.70
71879;DHT22;59755;43.834;4.364;2023-03-01T03:33:04;4.70;58.50
71879;DHT22;59755;43.834;4.364;2023-03-01T03:35:31;4.70;58.70
71879;DHT22;59755;43.834;4.364;2023-03-01T03:37:57;4.70;58.40
71879;DHT22;59755;43.834;4.364;2023-03-01T03:40:35;4.70;58.70
71879;DHT22;59755;43.834;4.364;2023-03-01T03:43:01;4.80;58.10
71879;DHT22;59755;43.834;4.364;2023-03-01T03:45:27;4.70;58.70
71879;DHT22;59755;43.834;4.364;2023-03-01T03:47:52;4.70;59.30
71879;DHT22;59755;43.834;4.364;2023-03-01T03:50:18;4.70;58.60
71879;DHT22;59755;43.834;4.364;2023-03-01T03:52:44;4.70;58.90
71879;DHT22;59755;43.834;4.364;2023-03-01T03:55:10;4.70;59.50
71879;DHT22;59755;43.834;4.364;2023-03-01T03:57:36;4.70;59.40
71879;DHT22;59755;43.834;4.364;2023-03-01T04:00:03;4.70;58.90
71879;DHT22;59755;43.834;4.364;2023-03-01T04:02:38;4.70;58.70
71879;DHT22;59755;43.834;4.364;2023-03-01T04:05:04;4.60;58.90
71879;DHT22;59755;43.834;4.364;2023-03-01T04:07:30;4.60;58.70
71879;DHT22;59755;43.834;4.364;2023-03-01T04:09:55;4.60;58.80
71879;DHT22;59755;43.834;4.364;2023-03-01T04:12:21;4.50;59.10
71879;DHT22;59755;43.834;4.364;2023-03-01T04:14:48;4.50;59.50
71879;DHT22;59755;43.834;4.364;2023-03-01T04:17:14;4.50;59.40
71879;DHT22;59755;43.834;4.364;2023-03-01T04:19:39;4.40;59.30
71879;DHT22;59755;43.834;4.364;2023-03-01T04:22:05;4.30;59.90
71879;DHT22;59755;43.834;4.364;2023-03-01T04:24:34;4.30;59.70
71879;DHT22;59755;43.834;4.364;2023-03-01T04:27:00;4.30;59.70
71879;DHT22;59755;43.834;4.364;2023-03-01T04:29:26;4.30;60.20
71879;DHT22;59755;43.834;4.364;2023-03-01T04:31:52;4.30;60.00
71879;DHT22;59755;43.834;4.364;2023-03-01T04:34:18;4.30;60.70
71879;DHT22;59755;43.834;4.364;2023-03-01T04:36:44;4.20;60.20
71879;DHT22;59755;43.834;4.364;2023-03-01T04:39:09;4.20;60.50
71879;DHT22;59755;43.834;4.364;2023-03-01T04:41:38;4.30;60.40
71879;DHT22;59755;43.834;4.364;2023-03-01T04:44:04;4.20;60.50
71879;DHT22;59755;43.834;4.364;2023-03-01T04:46:30;4.20;60.70
71879;DHT22;59755;43.834;4.364;2023-03-01T04:48:55;4.20;61.20
71879;DHT22;59755;43.834;4.364;2023-03-01T04:51:21;4.20;60.50
71879;DHT22;59755;43.834;4.364;2023-03-01T04:53:47;4.20;60.60
71879;DHT22;59755;43.834;4.364;2023-03-01T04:56:12;4.20;60.20
71879;DHT22;59755;43.834;4.364;2023-03-01T04:58:43;4.20;60.10
71879;DHT22;59755;43.834;4.364;2023-03-01T05:01:10;4.10;60.20
71879;DHT22;59755;43.834;4.364;2023-03-01T05:03:41;4.10;60.40
71879;DHT22;59755;43.834;4.364;2023-03-01T05:06:06;4.10;60.50
71879;DHT22;59755;43.834;4.364;2023-03-01T05:08:32;4.10;60.50
71879;DHT22;59755;43.834;4.364;2023-03-01T05:10:59;4.10;60.20
71879;DHT22;59755;43.834;4.364;2023-03-01T05:13:25;4.20;60.10
71879;DHT22;59755;43.834;4.364;2023-03-01T05:18:20;4.10;59.90
71879;DHT22;59755;43.834;4.364;2023-03-01T05:20:46;4.10;59.80
71879;DHT22;59755;43.834;4.364;2023-03-01T05:23:12;4.10;60.10
71879;DHT22;59755;43.834;4.364;2023-03-01T05:25:38;4.00;60.20
71879;DHT22;59755;43.834;4.364;2023-03-01T05:28:06;4.00;60.50
71879;DHT22;59755;43.834;4.364;2023-03-01T05:30:32;3.90;60.60
71879;DHT22;59755;43.834;4.364;2023-03-01T05:32:58;4.00;60.50
71879;DHT22;59755;43.834;4.364;2023-03-01T05:35:24;3.90;61.30
71879;DHT22;59755;43.834;4.364;2023-03-01T05:37:49;4.00;60.60
71879;DHT22;59755;43.834;4.364;2023-03-01T05:40:16;4.10;59.90
71879;DHT22;59755;43.834;4.364;2023-03-01T05:42:43;4.10;59.60
71879;DHT22;59755;43.834;4.364;2023-03-01T05:45:09;4.10;60.10
71879;DHT22;59755;43.834;4.364;2023-03-01T05:47:35;4.10;59.70
71879;DHT22;59755;43.834;4.364;2023-03-01T05:50:01;4.10;60.40
71879;DHT22;59755;43.834;4.364;2023-03-01T05:52:26;4.10;59.90
71879;DHT22;59755;43.834;4.364;2023-03-01T05:54:52;4.10;60.20
71879;DHT22;59755;43.834;4.364;2023-03-01T05:57:18;4.00;59.80
71879;DHT22;59755;43.834;4.364;2023-03-01T05:59:43;4.00;60.20
71879;DHT22;59755;43.834;4.364;2023-03-01T06:02:09;4.00;60.10
71879;DHT22;59755;43.834;4.364;2023-03-01T06:04:34;4.00;61.20
71879;DHT22;59755;43.834;4.364;2023-03-01T06:07:00;4.00;60.40
71879;DHT22;59755;43.834;4.364;2023-03-01T06:09:25;3.90;59.90
71879;DHT22;59755;43.834;4.364;2023-03-01T06:11:51;3.90;60.30
71879;DHT22;59755;43.834;4.364;2023-03-01T06:14:17;3.80;60.90
71879;DHT22;59755;43.834;4.364;2023-03-01T06:16:42;3.80;60.80
71879;DHT22;59755;43.834;4.364;2023-03-01T06:19:08;3.80;60.70
71879;DHT22;59755;43.834;4.364;2023-03-01T06:21:33;3.70;60.90
71879;DHT22;59755;43.834;4.364;2023-03-01T06:23:59;3.70;61.70
71879;DHT22;59755;43.834;4.364;2023-03-01T06:26:24;3.70;60.80
71879;DHT22;59755;43.834;4.364;2023-03-01T06:28:50;3.70;61.20
71879;DHT22;59755;43.834;4.364;2023-03-01T06:31:16;3.70;61.50
71879;DHT22;59755;43.834;4.364;2023-03-01T06:33:41;3.60;61.20
71879;DHT22;59755;43.834;4.364;2023-03-01T06:36:07;3.70;61.40
71879;DHT22;59755;43.834;4.364;2023-03-01T06:38:33;3.70;61.20
71879;DHT22;59755;43.834;4.364;2023-03-01T06:40:59;3.70;61.40
71879;DHT22;59755;43.834;4.364;2023-03-01T06:43:24;3.70;61.70
71879;DHT22;59755;43.834;4.364;2023-03-01T06:45:50;3.80;61.30
71879;DHT22;59755;43.834;4.364;2023-03-01T06:48:16;3.70;61.70
71879;DHT22;59755;43.834;4.364;2023-03-01T06:50:41;3.80;60.90
71879;DHT22;59755;43.834;4.364;2023-03-01T06:53:07;3.80;60.70
71879;DHT22;59755;43.834;4.364;2023-03-01T06:55:33;3.80;60.60
71879;DHT22;59755;43.834;4.364;2023-03-01T06:57:59;3.80;61.10
71879;DHT22;59755;43.834;4.364;2023-03-01T07:00:25;3.80;61.10
71879;DHT22;59755;43.834;4.364;2023-03-01T07:02:51;3.90;60.80
71879;DHT22;59755;43.834;4.364;2023-03-01T07:05:16;3.90;60.90
71879;DHT22;59755;43.834;4.364;2023-03-01T07:07:42;3.90;60.90
71879;DHT22;59755;43.834;4.364;2023-03-01T07:10:08;3.80;61.30
71879;DHT22;59755;43.834;4.364;2023-03-01T07:12:34;3.80;62.00
71879;DHT22;59755;43.834;4.364;2023-03-01T07:14:59;3.80;61.50
71879;DHT22;59755;43.834;4.364;2023-03-01T07:17:25;3.90;62.00
71879;DHT22;59755;43.834;4.364;2023-03-01T07:19:50;3.90;60.80
71879;DHT22;59755;43.834;4.364;2023-03-01T07:22:16;4.00;60.80
71879;DHT22;59755;43.834;4.364;2023-03-01T07:24:42;3.90;61.20
71879;DHT22;59755;43.834;4.364;2023-03-01T07:27:08;3.90;61.30
71879;DHT22;59755;43.834;4.364;2023-03-01T07:29:33;4.00;61.10
71879;DHT22;59755;43.834;4.364;2023-03-01T07:32:02;4.10;60.90
71879;DHT22;59755;43.834;4.364;2023-03-01T07:34:27;4.20;60.80
71879;DHT22;59755;43.834;4.364;2023-03-01T07:36:53;4.20;60.40
71879;DHT22;59755;43.834;4.364;2023-03-01T07:39:18;4.30;60.00
71879;DHT22;59755;43.834;4.364;2023-03-01T07:41:44;4.30;59.60
71879;DHT22;59755;43.834;4.364;2023-03-01T07:44:10;4.30;60.30
71879;DHT22;59755;43.834;4.364;2023-03-01T07:46:36;4.40;59.90
71879;DHT22;59755;43.834;4.364;2023-03-01T07:49:01;4.40;60.00
71879;DHT22;59755;43.834;4.364;2023-03-01T07:51:27;4.50;59.40
71879;DHT22;59755;43.834;4.364;2023-03-01T07:53:52;4.50;58.80
71879;DHT22;59755;43.834;4.364;2023-03-01T07:56:18;4.60;58.90
71879;DHT22;59755;43.834;4.364;2023-03-01T07:58:44;4.70;58.70
71879;DHT22;59755;43.834;4.364;2023-03-01T08:01:11;4.80;59.00
71879;DHT22;59755;43.834;4.364;2023-03-01T08:03:37;4.90;58.40
71879;DHT22;59755;43.834;4.364;2023-03-01T08:06:04;4.90;58.40
71879;DHT22;59755;43.834;4.364;2023-03-01T08:08:30;5.00;58.60
71879;DHT22;59755;43.834;4.364;2023-03-01T08:10:59;5.10;58.60
71879;DHT22;59755;43.834;4.364;2023-03-01T08:13:24;5.20;57.90
71879;DHT22;59755;43.834;4.364;2023-03-01T08:15:50;5.20;57.30
71879;DHT22;59755;43.834;4.364;2023-03-01T08:18:17;5.30;56.50
71879;DHT22;59755;43.834;4.364;2023-03-01T08:20:43;5.50;55.70
71879;DHT22;59755;43.834;4.364;2023-03-01T08:23:08;5.50;55.30
71879;DHT22;59755;43.834;4.364;2023-03-01T08:25:34;5.60;55.00
71879;DHT22;59755;43.834;4.364;2023-03-01T08:27:59;5.70;55.10
71879;DHT22;59755;43.834;4.364;2023-03-01T08:30:25;5.80;54.90
71879;DHT22;59755;43.834;4.364;2023-03-01T08:32:50;5.90;55.00
71879;DHT22;59755;43.834;4.364;2023-03-01T08:35:16;5.90;54.30
71879;DHT22;59755;43.834;4.364;2023-03-01T08:37:42;6.10;54.00
71879;DHT22;59755;43.834;4.364;2023-03-01T08:40:08;6.10;53.80
71879;DHT22;59755;43.834;4.364;2023-03-01T08:42:35;6.20;53.50
71879;DHT22;59755;43.834;4.364;2023-03-01T08:45:02;6.20;53.90
71879;DHT22;59755;43.834;4.364;2023-03-01T08:47:27;6.20;53.00
71879;DHT22;59755;43.834;4.364;2023-03-01T08:49:53;6.30;53.30
71879;DHT22;59755;43.834;4.364;2023-03-01T08:52:19;6.40;53.40
71879;DHT22;59755;43.834;4.364;2023-03-01T08:54:46;6.60;53.10
71879;DHT22;59755;43.834;4.364;2023-03-01T08:57:12;6.70;52.70
71879;DHT22;59755;43.834;4.364;2023-03-01T08:59:38;6.80;52.60
71879;DHT22;59755;43.834;4.364;2023-03-01T09:02:10;6.80;51.60
71879;DHT22;59755;43.834;4.364;2023-03-01T09:04:36;6.90;52.30
71879;DHT22;59755;43.834;4.364;2023-03-01T09:07:02;7.00;51.30
71879;DHT22;59755;43.834;4.364;2023-03-01T09:09:27;7.10;50.50
71879;DHT22;59755;43.834;4.364;2023-03-01T09:11:53;7.00;50.60
71879;DHT22;59755;43.834;4.364;2023-03-01T09:14:18;7.10;50.40
71879;DHT22;59755;43.834;4.364;2023-03-01T09:16:44;7.20;50.50
71879;DHT22;59755;43.834;4.364;2023-03-01T09:19:10;7.30;49.80
71879;DHT22;59755;43.834;4.364;2023-03-01T09:21:36;7.30;49.60
71879;DHT22;59755;43.834;4.364;2023-03-01T09:24:02;7.30;49.80
71879;DHT22;59755;43.834;4.364;2023-03-01T09:26:28;7.40;49.60
71879;DHT22;59755;43.834;4.364;2023-03-01T09:28:54;7.40;49.60
71879;DHT22;59755;43.834;4.364;2023-03-01T09:31:21;7.50;49.30
71879;DHT22;59755;43.834;4.364;2023-03-01T09:33:48;7.50;49.00
71879;DHT22;59755;43.834;4.364;2023-03-01T09:36:17;7.60;49.50
71879;DHT22;59755;43.834;4.364;2023-03-01T09:38:44;7.80;48.80
71879;DHT22;59755;43.834;4.364;2023-03-01T09:41:11;7.90;48.50
71879;DHT22;59755;43.834;4.364;2023-03-01T09:43:53;8.00;48.70
71879;DHT22;59755;43.834;4.364;2023-03-01T09:46:23;8.20;48.70
71879;DHT22;59755;43.834;4.364;2023-03-01T09:49:01;8.20;47.50
71879;DHT22;59755;43.834;4.364;2023-03-01T09:53:57;8.20;46.80
71879;DHT22;59755;43.834;4.364;2023-03-01T09:56:32;8.30;47.20
71879;DHT22;59755;43.834;4.364;2023-03-01T09:59:01;8.10;47.00
71879;DHT22;59755;43.834;4.364;2023-03-01T10:06:44;8.60;47.30
71879;DHT22;59755;43.834;4.364;2023-03-01T10:09:16;8.60;46.70
71879;DHT22;59755;43.834;4.364;2023-03-01T10:11:44;8.60;46.60
71879;DHT22;59755;43.834;4.364;2023-03-01T10:16:55;8.70;46.30
71879;DHT22;59755;43.834;4.364;2023-03-01T10:19:30;8.90;45.60
71879;DHT22;59755;43.834;4.364;2023-03-01T10:21:57;9.10;46.00
71879;DHT22;59755;43.834;4.364;2023-03-01T10:24:26;9.40;44.50
71879;DHT22;59755;43.834;4.364;2023-03-01T10:26:55;9.60;44.40
71879;DHT22;59755;43.834;4.364;2023-03-01T10:29:23;10.00;43.60
71879;DHT22;59755;43.834;4.364;2023-03-01T10:31:50;10.00;43.20
71879;DHT22;59755;43.834;4.364;2023-03-01T10:36:42;10.40;42.30
71879;DHT22;59755;43.834;4.364;2023-03-01T10:39:13;10.60;42.50
71879;DHT22;59755;43.834;4.364;2023-03-01T10:47:05;11.40;40.90
71879;DHT22;59755;43.834;4.364;2023-03-01T10:49:37;11.60;40.00
71879;DHT22;59755;43.834;4.364;2023-03-01T10:52:11;11.70;40.00
71879;DHT22;59755;43.834;4.364;2023-03-01T10:54:41;11.70;40.00
71879;DHT22;59755;43.834;4.364;2023-03-01T11:00:17;11.90;39.10
71879;DHT22;59755;43.834;4.364;2023-03-01T11:02:47;12.20;38.90
71879;DHT22;59755;43.834;4.364;2023-03-01T11:10:16;11.50;40.20
71879;DHT22;59755;43.834;4.364;2023-03-01T11:12:42;13.00;37.50
71879;DHT22;59755;43.834;4.364;2023-03-01T11:15:08;13.60;36.90
71879;DHT22;59755;43.834;4.364;2023-03-01T11:17:44;13.30;36.70
71879;DHT22;59755;43.834;4.364;2023-03-01T11:25:11;12.20;39.20
71879;DHT22;59755;43.834;4.364;2023-03-01T11:27:43;13.00;37.80
71879;DHT22;59755;43.834;4.364;2023-03-01T11:30:20;13.30;37.00
71879;DHT22;59755;43.834;4.364;2023-03-01T11:32:55;13.30;37.20
71879;DHT22;59755;43.834;4.364;2023-03-01T11:35:26;13.20;37.80
71879;DHT22;59755;43.834;4.364;2023-03-01T11:40:25;12.90;37.60
71879;DHT22;59755;43.834;4.364;2023-03-01T11:42:54;12.20;38.20
71879;DHT22;59755;43.834;4.364;2023-03-01T11:45:22;11.90;38.80
71879;DHT22;59755;43.834;4.364;2023-03-01T11:50:28;12.40;38.90
71879;DHT22;59755;43.834;4.364;2023-03-01T11:53:06;12.30;38.60
71879;DHT22;59755;43.834;4.364;2023-03-01T11:55:45;12.00;39.90
71879;DHT22;59755;43.834;4.364;2023-03-01T11:58:14;11.60;39.60
71879;DHT22;59755;43.834;4.364;2023-03-01T12:08:42;10.80;41.40
71879;DHT22;59755;43.834;4.364;2023-03-01T12:11:27;10.70;41.50
71879;DHT22;59755;43.834;4.364;2023-03-01T12:13:58;10.90;41.20
71879;DHT22;59755;43.834;4.364;2023-03-01T12:26:52;15.90;33.30
71879;DHT22;59755;43.834;4.364;2023-03-01T12:29:24;16.90;31.70
71879;DHT22;59755;43.834;4.364;2023-03-01T12:50:41;18.80;28.80
71879;DHT22;59755;43.834;4.364;2023-03-01T12:53:17;18.60;29.30
71879;DHT22;59755;43.834;4.364;2023-03-01T12:55:44;18.60;29.20
71879;DHT22;59755;43.834;4.364;2023-03-01T13:01:00;17.60;30.50
71879;DHT22;59755;43.834;4.364;2023-03-01T13:09:03;18.20;30.10
71879;DHT22;59755;43.834;4.364;2023-03-01T13:11:31;18.30;29.60
71879;DHT22;59755;43.834;4.364;2023-03-01T13:14:44;18.40;29.60
71879;DHT22;59755;43.834;4.364;2023-03-01T13:16:47;18.70;29.40
71879;DHT22;59755;43.834;4.364;2023-03-01T13:19:21;18.50;29.30
71879;DHT22;59755;43.834;4.364;2023-03-01T13:21:48;18.50;28.70
71879;DHT22;59755;43.834;4.364;2023-03-01T13:27:28;17.40;29.80
71879;DHT22;59755;43.834;4.364;2023-03-01T13:29:57;17.50;30.00
71879;DHT22;59755;43.834;4.364;2023-03-01T13:34:55;17.60;30.30
71879;DHT22;59755;43.834;4.364;2023-03-01T13:37:23;18.80;28.90
71879;DHT22;59755;43.834;4.364;2023-03-01T13:39:48;18.70;28.80
71879;DHT22;59755;43.834;4.364;2023-03-01T13:44:55;17.90;29.30
71879;DHT22;59755;43.834;4.364;2023-03-01T13:47:20;18.80;28.70
71879;DHT22;59755;43.834;4.364;2023-03-01T13:52:37;19.60;27.80
71879;DHT22;59755;43.834;4.364;2023-03-01T13:55:24;20.20;27.50
71879;DHT22;59755;43.834;4.364;2023-03-01T13:57:53;20.40;27.60
71879;DHT22;59755;43.834;4.364;2023-03-01T14:00:28;20.60;27.00
71879;DHT22;59755;43.834;4.364;2023-03-01T14:05:38;19.70;29.10
71879;DHT22;59755;43.834;4.364;2023-03-01T14:08:05;20.80;28.10
71879;DHT22;59755;43.834;4.364;2023-03-01T14:10:45;21.40;27.30
71879;DHT22;59755;43.834;4.364;2023-03-01T14:15:55;21.40;27.40
71879;DHT22;59755;43.834;4.364;2023-03-01T14:21:12;21.80;26.80
71879;DHT22;59755;43.834;4.364;2023-03-01T14:23:39;21.60;26.60
71879;DHT22;59755;43.834;4.364;2023-03-01T14:26:07;20.20;27.90
71879;DHT22;59755;43.834;4.364;2023-03-01T14:28:33;19.90;28.10
71879;DHT22;59755;43.834;4.364;2023-03-01T14:31:03;19.90;28.60
71879;DHT22;59755;43.834;4.364;2023-03-01T14:36:04;19.90;28.60
71879;DHT22;59755;43.834;4.364;2023-03-01T14:38:34;19.20;29.80
71879;DHT22;59755;43.834;4.364;2023-03-01T14:41:22;18.40;30.50
71879;DHT22;59755;43.834;4.364;2023-03-01T14:43:55;17.70;31.30
71879;DHT22;59755;43.834;4.364;2023-03-01T14:46:42;17.10;31.70
71879;DHT22;59755;43.834;4.364;2023-03-01T14:49:24;17.10;32.00
71879;DHT22;59755;43.834;4.364;2023-03-01T14:54:21;17.80;30.70
71879;DHT22;59755;43.834;4.364;2023-03-01T14:56:47;17.80;31.20
71879;DHT22;59755;43.834;4.364;2023-03-01T14:59:13;17.80;31.00
71879;DHT22;59755;43.834;4.364;2023-03-01T15:01:39;17.90;31.30
71879;DHT22;59755;43.834;4.364;2023-03-01T15:04:05;18.00;30.60
71879;DHT22;59755;43.834;4.364;2023-03-01T15:06:31;18.00;30.90
71879;DHT22;59755;43.834;4.364;2023-03-01T15:08:57;18.00;30.90
71879;DHT22;59755;43.834;4.364;2023-03-01T15:11:24;17.90;31.10
71879;DHT22;59755;43.834;4.364;2023-03-01T15:13:52;17.80;31.30
71879;DHT22;59755;43.834;4.364;2023-03-01T15:16:18;17.50;32.00
71879;DHT22;59755;43.834;4.364;2023-03-01T15:18:48;17.20;32.20
71879;DHT22;59755;43.834;4.364;2023-03-01T15:21:16;17.10;32.80
71879;DHT22;59755;43.834;4.364;2023-03-01T15:23:47;16.60;33.20
71879;DHT22;59755;43.834;4.364;2023-03-01T15:26:21;16.20;33.90
71879;DHT22;59755;43.834;4.364;2023-03-01T15:28:51;15.90;34.60
71879;DHT22;59755;43.834;4.364;2023-03-01T15:31:25;15.40;35.30
71879;DHT22;59755;43.834;4.364;2023-03-01T15:33:51;15.10;35.70
71879;DHT22;59755;43.834;4.364;2023-03-01T15:38:55;14.80;36.60
71879;DHT22;59755;43.834;4.364;2023-03-01T15:43:51;14.20;37.20
71879;DHT22;59755;43.834;4.364;2023-03-01T15:46:25;13.80;38.00
71879;DHT22;59755;43.834;4.364;2023-03-01T15:48:53;13.60;38.20
71879;DHT22;59755;43.834;4.364;2023-03-01T15:51:22;13.20;38.90
71879;DHT22;59755;43.834;4.364;2023-03-01T15:53:49;12.90;39.40
71879;DHT22;59755;43.834;4.364;2023-03-01T15:56:15;12.60;40.00
71879;DHT22;59755;43.834;4.364;2023-03-01T15:58:41;12.40;40.60
71879;DHT22;59755;43.834;4.364;2023-03-01T16:01:11;12.30;40.70
71879;DHT22;59755;43.834;4.364;2023-03-01T16:03:38;12.30;40.80
71879;DHT22;59755;43.834;4.364;2023-03-01T16:06:03;12.00;41.10
71879;DHT22;59755;43.834;4.364;2023-03-01T16:08:29;11.90;41.30
71879;DHT22;59755;43.834;4.364;2023-03-01T16:10:54;11.60;41.90
71879;DHT22;59755;43.834;4.364;2023-03-01T16:13:20;11.60;42.10
71879;DHT22;59755;43.834;4.364;2023-03-01T16:15:46;11.40;42.00
71879;DHT22;59755;43.834;4.364;2023-03-01T16:18:11;11.10;42.90
71879;DHT22;59755;43.834;4.364;2023-03-01T16:20:37;11.00;42.90
71879;DHT22;59755;43.834;4.364;2023-03-01T16:23:06;10.80;43.00
71879;DHT22;59755;43.834;4.364;2023-03-01T16:25:32;10.50;43.20
71879;DHT22;59755;43.834;4.364;2023-03-01T16:27:59;10.40;43.60
71879;DHT22;59755;43.834;4.364;2023-03-01T16:30:26;10.30;44.10
71879;DHT22;59755;43.834;4.364;2023-03-01T16:32:52;10.40;43.80
71879;DHT22;59755;43.834;4.364;2023-03-01T16:35:19;10.30;43.80
71879;DHT22;59755;43.834;4.364;2023-03-01T16:37:46;10.10;44.20
71879;DHT22;59755;43.834;4.364;2023-03-01T16:40:23;10.10;44.50
71879;DHT22;59755;43.834;4.364;2023-03-01T16:42:50;9.90;44.60
71879;DHT22;59755;43.834;4.364;2023-03-01T16:45:15;9.80;44.80
71879;DHT22;59755;43.834;4.364;2023-03-01T16:47:41;9.70;44.90
71879;DHT22;59755;43.834;4.364;2023-03-01T16:50:07;9.70;45.00
71879;DHT22;59755;43.834;4.364;2023-03-01T16:52:33;9.60;45.10
71879;DHT22;59755;43.834;4.364;2023-03-01T16:54:59;9.60;45.40
71879;DHT22;59755;43.834;4.364;2023-03-01T16:57:24;9.50;45.90
71879;DHT22;59755;43.834;4.364;2023-03-01T16:59:53;9.20;46.30
71879;DHT22;59755;43.834;4.364;2023-03-01T17:02:19;9.20;46.20
71879;DHT22;59755;43.834;4.364;2023-03-01T17:04:45;9.00;46.40
71879;DHT22;59755;43.834;4.364;2023-03-01T17:07:10;9.00;46.80
71879;DHT22;59755;43.834;4.364;2023-03-01T17:09:37;8.80;47.30
71879;DHT22;59755;43.834;4.364;2023-03-01T17:12:05;8.90;47.20
71879;DHT22;59755;43.834;4.364;2023-03-01T17:14:31;8.90;47.40
71879;DHT22;59755;43.834;4.364;2023-03-01T17:16:56;8.90;47.40
71879;DHT22;59755;43.834;4.364;2023-03-01T17:19:22;8.70;47.50
71879;DHT22;59755;43.834;4.364;2023-03-01T17:21:48;8.70;47.70
71879;DHT22;59755;43.834;4.364;2023-03-01T17:24:13;8.60;48.10
71879;DHT22;59755;43.834;4.364;2023-03-01T17:26:39;8.40;48.10
71879;DHT22;59755;43.834;4.364;2023-03-01T17:29:05;8.40;48.30
71879;DHT22;59755;43.834;4.364;2023-03-01T17:31:31;8.40;48.50
71879;DHT22;59755;43.834;4.364;2023-03-01T17:33:57;8.30;48.10
71879;DHT22;59755;43.834;4.364;2023-03-01T17:36:23;8.10;48.20
71879;DHT22;59755;43.834;4.364;2023-03-01T17:38:49;7.90;48.70
71879;DHT22;59755;43.834;4.364;2023-03-01T17:41:15;7.80;48.90
71879;DHT22;59755;43.834;4.364;2023-03-01T17:43:43;7.80;49.20
71879;DHT22;59755;43.834;4.364;2023-03-01T17:46:09;7.80;49.30
71879;DHT22;59755;43.834;4.364;2023-03-01T17:48:35;7.70;49.50
71879;DHT22;59755;43.834;4.364;2023-03-01T17:51:04;7.60;49.50
71879;DHT22;59755;43.834;4.364;2023-03-01T17:53:30;7.50;49.90